createdAt,value
2018-09-01T00:00:56.545Z,7.57
2018-09-01T00:03:25.038Z,3.93
2018-09-01T00:05:53.521Z,4.80
2018-09-01T00:08:22.653Z,5.50
2018-09-01T00:10:51.095Z,5.30
2018-09-01T00:13:19.537Z,7.47
2018-09-01T00:15:48.984Z,4.80
2018-09-01T00:18:17.464Z,8.40
2018-09-01T00:20:48.907Z,5.87
2018-09-01T00:23:17.352Z,5.10
2018-09-01T00:25:45.743Z,4.33
2018-09-01T00:28:14.160Z,7.30
2018-09-01T00:30:42.683Z,3.57
2018-09-01T00:33:11.022Z,5.43
2018-09-01T00:35:39.484Z,5.23
2018-09-01T00:38:13.292Z,4.97
2018-09-01T00:40:41.719Z,6.27
2018-09-01T00:43:10.134Z,6.33
2018-09-01T00:45:38.559Z,6.83
2018-09-01T00:48:06.979Z,4.33
2018-09-01T00:50:35.379Z,6.33
2018-09-01T00:53:03.791Z,6.50
2018-09-01T00:55:33.267Z,4.83
2018-09-01T00:58:02.420Z,5.80
2018-09-01T01:00:30.801Z,9.17
2018-09-01T01:03:00.071Z,6.67
2018-09-01T01:05:29.098Z,7.13
2018-09-01T01:07:58.086Z,4.73
2018-09-01T01:10:26.466Z,5.20
2018-09-01T01:12:54.818Z,4.63
2018-09-01T01:15:23.255Z,7.93
2018-09-01T01:17:52.170Z,6.00
2018-09-01T01:20:21.091Z,5.80
2018-09-01T01:22:49.511Z,5.90
2018-09-01T01:25:17.961Z,5.97
2018-09-01T01:27:46.354Z,6.07
2018-09-01T01:30:14.733Z,4.60
2018-09-01T01:32:43.143Z,8.93
2018-09-01T01:35:11.497Z,5.07
2018-09-01T01:37:39.909Z,7.97
2018-09-01T01:40:08.270Z,6.90
2018-09-01T01:42:37.305Z,7.97
2018-09-01T01:45:06.033Z,5.97
2018-09-01T01:47:39.240Z,5.50
2018-09-01T01:50:08.218Z,6.50
2018-09-01T01:52:36.729Z,6.20
2018-09-01T01:55:05.224Z,5.70
2018-09-01T01:57:37.920Z,2.87
2018-09-01T02:00:06.635Z,7.00
2018-09-01T02:02:36.413Z,3.93
2018-09-01T02:05:05.576Z,6.30
2018-09-01T02:07:33.983Z,5.37
2018-09-01T02:10:02.391Z,5.47
2018-09-01T02:12:30.819Z,4.87
2018-09-01T02:14:59.264Z,4.33
2018-09-01T02:17:27.602Z,6.93
2018-09-01T02:19:56.051Z,4.93
2018-09-01T02:22:24.548Z,6.47
2018-09-01T02:24:52.968Z,5.47
2018-09-01T02:27:21.376Z,3.70
2018-09-01T02:29:49.755Z,7.77
2018-09-01T02:32:18.214Z,6.80
2018-09-01T02:34:46.716Z,6.87
2018-09-01T02:37:15.522Z,6.87
2018-09-01T02:39:44.271Z,5.33
2018-09-01T02:42:12.863Z,5.23
2018-09-01T02:44:41.203Z,6.00
2018-09-01T02:47:09.592Z,4.50
2018-09-01T02:49:38.194Z,5.57
2018-09-01T02:52:06.672Z,6.17
2018-09-01T02:54:35.291Z,5.10
2018-09-01T02:57:03.702Z,4.07
2018-09-01T02:59:32.074Z,6.50
2018-09-01T03:02:00.508Z,7.43
2018-09-01T03:04:28.922Z,5.53
2018-09-01T03:06:59.490Z,6.23
2018-09-01T03:09:27.976Z,7.10
2018-09-01T03:11:57.561Z,7.93
2018-09-01T03:14:26.645Z,6.00
2018-09-01T03:16:55.813Z,6.27
2018-09-01T03:19:25.002Z,5.47
2018-09-01T03:21:53.472Z,5.97
2018-09-01T03:24:21.856Z,7.20
2018-09-01T03:26:50.463Z,8.47
2018-09-01T03:29:18.877Z,4.60
2018-09-01T03:31:47.319Z,5.40
2018-09-01T03:34:15.756Z,6.20
2018-09-01T03:36:44.131Z,5.87
2018-09-01T03:39:12.563Z,4.60
2018-09-01T03:41:40.999Z,4.83
2018-09-01T03:44:09.426Z,9.83
2018-09-01T03:46:37.810Z,7.17
2018-09-01T03:49:07.780Z,5.00
2018-09-01T03:51:36.209Z,7.43
2018-09-01T03:54:04.897Z,5.93
2018-09-01T03:56:33.513Z,4.33
2018-09-01T03:59:01.970Z,5.53
2018-09-01T04:01:30.405Z,4.87
2018-09-01T04:03:58.780Z,5.63
2018-09-01T04:06:27.174Z,5.00
2018-09-01T04:08:55.605Z,5.97
2018-09-01T04:11:24.080Z,8.53
2018-09-01T04:13:52.464Z,6.37
2018-09-01T04:16:20.903Z,9.00
2018-09-01T04:18:49.320Z,4.93
2018-09-01T04:21:17.695Z,6.33
2018-09-01T04:23:46.127Z,4.80
2018-09-01T04:26:14.584Z,6.63
2018-09-01T04:28:43.039Z,9.53
2018-09-01T04:31:11.443Z,5.20
2018-09-01T04:33:39.895Z,6.30
2018-09-01T04:36:08.270Z,7.23
2018-09-01T04:38:36.657Z,5.73
2018-09-01T04:41:05.068Z,6.17
2018-09-01T04:43:33.496Z,5.37
2018-09-01T04:46:01.916Z,4.20
2018-09-01T04:48:30.303Z,5.67
2018-09-01T04:50:58.789Z,6.87
2018-09-01T04:53:27.168Z,5.67
2018-09-01T04:55:55.584Z,5.37
2018-09-01T04:58:24.005Z,5.50
2018-09-01T05:00:52.407Z,6.23
2018-09-01T05:03:21.480Z,6.57
2018-09-01T05:05:50.120Z,5.23
2018-09-01T05:08:18.493Z,5.67
2018-09-01T05:10:46.988Z,4.93
2018-09-01T05:13:15.902Z,5.27
2018-09-01T05:15:44.273Z,5.43
2018-09-01T05:18:12.703Z,4.73
2018-09-01T05:20:41.063Z,9.07
2018-09-01T05:23:09.711Z,5.10
2018-09-01T05:25:38.138Z,4.17
2018-09-01T05:28:06.505Z,8.40
2018-09-01T05:30:34.898Z,5.87
2018-09-01T05:33:03.803Z,4.07
2018-09-01T05:35:32.220Z,7.70
2018-09-01T05:38:00.985Z,6.30
2018-09-01T05:40:29.417Z,6.20
2018-09-01T05:42:57.787Z,6.83
2018-09-01T05:45:26.228Z,5.83
2018-09-01T05:47:54.737Z,7.47
2018-09-01T05:50:23.171Z,7.47
2018-09-01T05:52:51.586Z,5.80
2018-09-01T05:55:19.959Z,7.27
2018-09-01T05:57:48.455Z,8.90
2018-09-01T06:00:22.211Z,7.80
2018-09-01T06:02:52.284Z,4.90
2018-09-01T06:05:20.678Z,6.93
2018-09-01T06:07:49.896Z,5.97
2018-09-01T06:10:18.281Z,8.03
2018-09-01T06:12:46.691Z,6.57
2018-09-01T06:15:15.095Z,7.90
2018-09-01T06:17:43.879Z,5.53
2018-09-01T06:20:13.143Z,6.50
2018-09-01T06:22:41.660Z,6.03
2018-09-01T06:25:10.816Z,5.77
2018-09-01T06:27:46.754Z,5.27
2018-09-01T06:30:18.555Z,6.90
2018-09-01T06:32:46.941Z,5.73
2018-09-01T06:35:16.608Z,9.70
2018-09-01T06:37:45.093Z,6.43
2018-09-01T06:40:13.489Z,7.43
2018-09-01T06:42:43.190Z,5.57
2018-09-01T06:45:11.674Z,6.67
2018-09-01T06:47:40.696Z,6.33
2018-09-01T06:50:09.167Z,7.50
2018-09-01T06:52:37.597Z,5.87
2018-09-01T06:55:06.121Z,9.47
2018-09-01T06:57:35.374Z,6.37
2018-09-01T07:00:04.263Z,5.97
2018-09-01T07:02:32.911Z,6.43
2018-09-01T07:05:01.349Z,6.87
2018-09-01T07:07:30.029Z,5.90
2018-09-01T07:09:58.445Z,6.20
2018-09-01T07:12:26.903Z,8.30
2018-09-01T07:14:55.423Z,8.47
2018-09-01T07:17:23.848Z,5.17
2018-09-01T07:19:52.261Z,4.90
2018-09-01T07:22:20.983Z,7.83
2018-09-01T07:24:50.001Z,8.60
2018-09-01T07:27:18.792Z,9.07
2018-09-01T07:29:47.251Z,6.83
2018-09-01T07:32:16.981Z,6.40
2018-09-01T07:34:45.484Z,9.73
2018-09-01T07:37:15.068Z,8.20
2018-09-01T07:39:43.828Z,4.63
2018-09-01T07:42:12.299Z,7.50
2018-09-01T07:44:41.791Z,11.20
2018-09-01T07:47:11.487Z,5.97
2018-09-01T07:49:41.345Z,9.40
2018-09-01T07:52:10.060Z,9.33
2018-09-01T07:54:38.703Z,5.23
2018-09-01T07:57:08.145Z,6.47
2018-09-01T07:59:37.434Z,7.37
2018-09-01T08:02:06.853Z,7.37
2018-09-01T08:04:36.493Z,6.40
2018-09-01T08:07:05.005Z,6.37
2018-09-01T08:09:33.469Z,7.33
2018-09-01T08:12:05.416Z,6.20
2018-09-01T08:14:34.090Z,5.70
2018-09-01T08:17:02.776Z,8.77
2018-09-01T08:19:33.010Z,5.80
2018-09-01T08:22:02.769Z,4.50
2018-09-01T08:24:33.017Z,8.67
2018-09-01T08:27:03.694Z,7.03
2018-09-01T08:29:32.095Z,5.50
2018-09-01T08:32:00.614Z,6.77
2018-09-01T08:34:29.030Z,5.93
2018-09-01T08:36:57.484Z,8.47
2018-09-01T08:39:25.932Z,6.53
2018-09-01T08:41:56.202Z,7.40
2018-09-01T08:44:26.537Z,6.97
2018-09-01T08:46:55.284Z,6.03
2018-09-01T08:49:24.832Z,6.97
2018-09-01T08:51:53.276Z,9.73
2018-09-01T08:54:23.881Z,4.93
2018-09-01T08:56:53.956Z,12.43
2018-09-01T08:59:23.244Z,8.27
2018-09-01T09:01:53.023Z,7.17
2018-09-01T09:04:21.694Z,7.43
2018-09-01T09:06:51.411Z,6.77
2018-09-01T09:09:19.940Z,6.37
2018-09-01T09:11:49.319Z,5.83
2018-09-01T09:14:18.326Z,8.83
2018-09-01T09:16:46.748Z,6.60
2018-09-01T09:19:15.276Z,8.17
2018-09-01T09:21:43.832Z,4.47
2018-09-01T09:24:12.271Z,4.90
2018-09-01T09:26:42.095Z,10.33
2018-09-01T09:29:10.520Z,6.47
2018-09-01T09:31:38.881Z,5.33
2018-09-01T09:34:07.569Z,6.33
2018-09-01T09:36:36.026Z,10.07
2018-09-01T09:39:06.634Z,7.83
2018-09-01T09:41:35.344Z,5.00
2018-09-01T09:44:03.841Z,7.93
2018-09-01T09:46:32.335Z,9.10
2018-09-01T09:49:00.877Z,6.83
2018-09-01T09:51:29.288Z,9.33
2018-09-01T09:53:57.693Z,5.07
2018-09-01T09:56:26.083Z,6.37
2018-09-01T09:58:54.576Z,6.67
2018-09-01T10:01:33.282Z,7.07
2018-09-01T10:04:02.012Z,4.80
2018-09-01T10:06:30.575Z,4.83
2018-09-01T10:08:59.059Z,6.60
2018-09-01T10:11:27.546Z,7.60
2018-09-01T10:13:56.106Z,6.03
2018-09-01T10:16:25.199Z,10.23
2018-09-01T10:18:53.794Z,7.73
2018-09-01T10:21:22.236Z,4.67
2018-09-01T10:23:50.638Z,5.83
2018-09-01T10:26:19.101Z,7.33
2018-09-01T10:28:47.551Z,6.97
2018-09-01T10:31:15.942Z,3.70
2018-09-01T10:33:44.668Z,5.57
2018-09-01T10:36:13.099Z,8.03
2018-09-01T10:38:41.998Z,5.90
2018-09-01T10:41:10.439Z,5.77
2018-09-01T10:43:38.862Z,6.63
2018-09-01T10:46:07.529Z,6.10
2018-09-01T10:48:36.688Z,6.43
2018-09-01T10:51:05.129Z,4.70
2018-09-01T10:53:33.676Z,5.93
2018-09-01T10:56:02.235Z,7.00
2018-09-01T10:58:31.364Z,6.87
2018-09-01T11:00:59.815Z,6.60
2018-09-01T11:03:28.215Z,8.07
2018-09-01T11:05:56.616Z,4.43
2018-09-01T11:08:25.103Z,7.00
2018-09-01T11:10:54.309Z,6.80
2018-09-01T11:13:22.860Z,5.33
2018-09-01T11:15:51.569Z,5.73
2018-09-01T11:18:20.039Z,6.53
2018-09-01T11:20:48.575Z,6.90
2018-09-01T11:23:17.010Z,8.93
2018-09-01T11:25:45.443Z,5.73
2018-09-01T11:28:14.023Z,8.83
2018-09-01T11:30:42.865Z,4.63
2018-09-01T11:33:11.267Z,7.47
2018-09-01T11:35:39.887Z,5.77
2018-09-01T11:38:08.304Z,5.47
2018-09-01T11:40:36.812Z,6.23
2018-09-01T11:43:05.705Z,5.10
2018-09-01T11:45:34.244Z,4.63
2018-09-01T11:48:02.682Z,7.57
2018-09-01T11:50:31.098Z,7.73
2018-09-01T11:53:00.367Z,6.97
2018-09-01T11:55:28.803Z,11.53
2018-09-01T11:57:57.204Z,7.53
2018-09-01T12:00:25.589Z,6.83
2018-09-01T12:02:54.237Z,9.20
2018-09-01T12:05:22.742Z,9.23
2018-09-01T12:07:51.138Z,7.03
2018-09-01T12:10:19.583Z,7.47
2018-09-01T12:12:48.166Z,8.03
2018-09-01T12:15:17.302Z,9.10
2018-09-01T12:17:45.683Z,8.17
2018-09-01T12:20:14.086Z,5.10
2018-09-01T12:22:42.859Z,9.20
2018-09-01T12:25:11.299Z,7.87
2018-09-01T12:27:46.515Z,6.03
2018-09-01T12:30:14.930Z,5.93
2018-09-01T12:32:43.306Z,8.80
2018-09-01T12:35:11.954Z,7.23
2018-09-01T12:37:40.691Z,8.73
2018-09-01T12:40:09.199Z,9.03
2018-09-01T12:42:37.617Z,6.70
2018-09-01T12:45:06.876Z,8.97
2018-09-01T12:47:35.245Z,8.13
2018-09-01T12:50:04.033Z,6.53
2018-09-01T12:52:32.409Z,7.67
2018-09-01T12:55:00.787Z,7.03
2018-09-01T12:57:29.860Z,10.73
2018-09-01T12:59:58.217Z,8.23
2018-09-01T13:02:26.738Z,6.30
2018-09-01T13:04:55.168Z,10.40
2018-09-01T13:07:24.176Z,6.90
2018-09-01T13:09:52.602Z,10.47
2018-09-01T13:12:20.978Z,11.47
2018-09-01T13:14:49.352Z,7.60
2018-09-01T13:17:17.758Z,8.87
2018-09-01T13:19:46.240Z,6.83
2018-09-01T13:22:14.792Z,7.30
2018-09-01T13:24:43.137Z,10.10
2018-09-01T13:27:11.519Z,7.70
2018-09-01T13:29:39.885Z,9.70
2018-09-01T13:32:08.325Z,7.60
2018-09-01T13:34:36.747Z,9.17
2018-09-01T13:37:05.213Z,7.13
2018-09-01T13:39:33.772Z,9.70
2018-09-01T13:42:02.224Z,7.23
2018-09-01T13:44:30.642Z,8.10
2018-09-01T13:46:59.004Z,10.93
2018-09-01T13:49:27.408Z,10.30
2018-09-01T13:51:55.826Z,6.37
2018-09-01T13:54:24.189Z,9.30
2018-09-01T13:56:52.588Z,10.13
2018-09-01T13:59:21.013Z,7.27
2018-09-01T14:01:49.463Z,11.10
2018-09-01T14:04:17.847Z,7.23
2018-09-01T14:06:46.279Z,9.73
2018-09-01T14:09:14.752Z,6.37
2018-09-01T14:11:43.177Z,8.40
2018-09-01T14:14:11.611Z,8.87
2018-09-01T14:16:39.970Z,8.57
2018-09-01T14:19:08.346Z,10.00
2018-09-01T14:21:36.814Z,7.83
2018-09-01T14:24:05.487Z,14.70
2018-09-01T14:26:33.914Z,9.27
2018-09-01T14:29:02.354Z,11.70
2018-09-01T14:31:30.765Z,12.43
2018-09-01T14:33:59.988Z,9.27
2018-09-01T14:36:29.371Z,11.43
2018-09-01T14:38:58.550Z,9.53
2018-09-01T14:41:27.055Z,12.03
2018-09-01T14:43:55.502Z,10.43
2018-09-01T14:46:23.876Z,8.20
2018-09-01T14:48:52.365Z,8.63
2018-09-01T14:51:20.866Z,14.50
2018-09-01T14:53:49.299Z,8.63
2018-09-01T14:56:17.763Z,9.70
2018-09-01T14:58:46.210Z,13.53
2018-09-01T15:01:14.643Z,9.67
2018-09-01T15:03:43.091Z,14.53
2018-09-01T15:06:11.568Z,10.00
2018-09-01T15:08:40.018Z,11.47
2018-09-01T15:11:08.473Z,8.03
2018-09-01T15:13:36.927Z,12.30
2018-09-01T15:16:05.425Z,8.57
2018-09-01T15:18:33.883Z,8.93
2018-09-01T15:21:02.309Z,8.90
2018-09-01T15:23:30.786Z,8.83
2018-09-01T15:25:59.470Z,9.53
2018-09-01T15:28:27.909Z,9.63
2018-09-01T15:30:56.464Z,7.33
2018-09-01T15:33:25.008Z,9.17
2018-09-01T15:35:53.471Z,11.37
2018-09-01T15:38:21.981Z,11.43
2018-09-01T15:40:50.373Z,9.30
2018-09-01T15:43:18.815Z,9.63
2018-09-01T15:45:47.217Z,10.80
2018-09-01T15:48:15.631Z,10.83
2018-09-01T15:50:44.035Z,10.80
2018-09-01T15:53:12.424Z,8.60
2018-09-01T15:55:40.841Z,8.67
2018-09-01T15:58:09.234Z,11.83
2018-09-01T16:00:37.627Z,11.33
2018-09-01T16:03:06.099Z,10.53
2018-09-01T16:05:34.674Z,7.17
2018-09-01T16:08:03.117Z,10.07
2018-09-01T16:10:31.714Z,10.50
2018-09-01T16:13:00.152Z,9.70
2018-09-01T16:15:28.581Z,9.50
2018-09-01T16:17:57.027Z,10.30
2018-09-01T16:20:25.537Z,10.07
2018-09-01T16:22:54.016Z,10.20
2018-09-01T16:25:23.201Z,10.63
2018-09-01T16:27:53.406Z,9.00
2018-09-01T16:30:22.799Z,8.53
2018-09-01T16:32:55.204Z,8.27
2018-09-01T16:35:29.967Z,10.90
2018-09-01T16:38:02.142Z,10.47
2018-09-01T16:40:30.608Z,8.77
2018-09-01T16:42:59.698Z,10.10
2018-09-01T16:45:30.411Z,11.27
2018-09-01T16:48:01.616Z,10.17
2018-09-01T16:50:30.124Z,8.53
2018-09-01T16:52:58.764Z,7.50
2018-09-01T16:55:27.309Z,8.17
2018-09-01T16:57:55.813Z,9.60
2018-09-01T17:00:24.420Z,10.10
2018-09-01T17:02:52.940Z,9.77
2018-09-01T17:05:21.369Z,13.83
2018-09-01T17:07:49.819Z,11.00
2018-09-01T17:10:18.304Z,11.13
2018-09-01T17:12:46.793Z,9.67
2018-09-01T17:15:15.417Z,12.43
2018-09-01T17:17:43.772Z,11.83
2018-09-01T17:20:12.189Z,10.33
2018-09-01T17:22:40.673Z,10.10
2018-09-01T17:25:09.172Z,8.93
2018-09-01T17:27:38.218Z,11.80
2018-09-01T17:30:07.373Z,12.27
2018-09-01T17:32:35.835Z,11.13
2018-09-01T17:35:04.268Z,9.60
2018-09-01T17:37:32.747Z,10.63
2018-09-01T17:40:01.168Z,10.43
2018-09-01T17:42:29.597Z,11.80
2018-09-01T17:44:58.393Z,10.60
2018-09-01T17:47:26.943Z,10.07
2018-09-01T17:49:55.401Z,11.00
2018-09-01T17:52:23.828Z,12.10
2018-09-01T17:54:52.248Z,12.17
2018-09-01T17:57:20.858Z,10.33
2018-09-01T17:59:49.266Z,9.50
2018-09-01T18:02:17.716Z,13.37
2018-09-01T18:04:46.305Z,10.73
2018-09-01T18:07:14.701Z,9.80
2018-09-01T18:09:43.118Z,10.70
2018-09-01T18:12:11.557Z,8.33
2018-09-01T18:14:40.061Z,13.53
2018-09-01T18:17:09.566Z,8.30
2018-09-01T18:19:38.053Z,8.63
2018-09-01T18:22:06.524Z,8.83
2018-09-01T18:24:34.939Z,9.93
2018-09-01T18:27:03.410Z,9.23
2018-09-01T18:29:31.842Z,8.67
2018-09-01T18:32:00.227Z,9.83
2018-09-01T18:34:28.575Z,10.53
2018-09-01T18:36:57.000Z,11.20
2018-09-01T18:39:25.919Z,8.93
2018-09-01T18:41:54.377Z,9.70
2018-09-01T18:44:22.965Z,8.60
2018-09-01T18:46:52.230Z,10.07
2018-09-01T18:49:20.831Z,10.90
2018-09-01T18:51:49.358Z,9.13
2018-09-01T18:54:17.985Z,10.00
2018-09-01T18:56:46.809Z,8.23
2018-09-01T18:59:15.548Z,8.27
2018-09-01T19:01:44.233Z,9.07
2018-09-01T19:04:18.670Z,10.80
2018-09-01T19:06:47.981Z,8.93
2018-09-01T19:09:16.534Z,8.53
2018-09-01T19:11:45.884Z,8.93
2018-09-01T19:14:17.030Z,10.40
2018-09-01T19:16:45.700Z,8.43
2018-09-01T19:19:16.436Z,8.07
2018-09-01T19:21:45.756Z,9.07
2018-09-01T19:24:14.463Z,8.70
2018-09-01T19:26:43.817Z,11.60
2018-09-01T19:29:12.276Z,8.33
2018-09-01T19:31:41.008Z,9.10
2018-09-01T19:34:09.563Z,9.60
2018-09-01T19:36:38.013Z,9.83
2018-09-01T19:39:08.610Z,11.67
2018-09-01T19:41:38.632Z,9.77
2018-09-01T19:44:07.187Z,10.27
2018-09-01T19:46:36.514Z,9.30
2018-09-01T19:49:05.320Z,11.10
2018-09-01T19:51:33.904Z,9.60
2018-09-01T19:54:02.352Z,8.83
2018-09-01T19:56:31.656Z,10.10
2018-09-01T19:59:00.047Z,9.87
2018-09-01T20:01:28.463Z,9.17
2018-09-01T20:03:57.697Z,10.63
2018-09-01T20:06:26.152Z,9.07
2018-09-01T20:08:55.206Z,10.13
2018-09-01T20:11:23.654Z,10.00
2018-09-01T20:13:52.194Z,11.47
2018-09-01T20:16:20.634Z,10.07
2018-09-01T20:18:49.059Z,11.03
2018-09-01T20:21:18.564Z,10.27
2018-09-01T20:23:47.746Z,11.93
2018-09-01T20:26:16.242Z,13.37
2018-09-01T20:28:45.545Z,12.20
2018-09-01T20:31:14.263Z,12.40
2018-09-01T20:33:42.735Z,12.20
2018-09-01T20:36:15.888Z,11.07
2018-09-01T20:38:44.354Z,11.70
2018-09-01T20:41:13.497Z,11.87
2018-09-01T20:43:41.952Z,11.63
2018-09-01T20:46:10.366Z,12.30
2018-09-01T20:48:39.038Z,12.33
2018-09-01T20:51:07.467Z,11.07
2018-09-01T20:53:36.132Z,11.73
2018-09-01T20:56:04.687Z,11.60
2018-09-01T20:58:33.320Z,12.13
2018-09-01T21:01:02.484Z,11.70
2018-09-01T21:03:32.242Z,11.20
2018-09-01T21:06:01.672Z,12.17
2018-09-01T21:08:31.025Z,11.87
2018-09-01T21:10:59.634Z,11.23
2018-09-01T21:13:28.038Z,11.40
2018-09-01T21:15:57.269Z,12.00
2018-09-01T21:18:25.731Z,12.50
2018-09-01T21:20:54.188Z,12.07
2018-09-01T21:23:22.623Z,11.90
2018-09-01T21:25:51.091Z,12.67
2018-09-01T21:28:19.507Z,13.17
2018-09-01T21:30:47.991Z,13.77
2018-09-01T21:33:16.399Z,12.83
2018-09-01T21:35:45.029Z,12.73
2018-09-01T21:38:13.460Z,12.33
2018-09-01T21:40:41.834Z,13.03
2018-09-01T21:43:10.335Z,12.80
2018-09-01T21:45:40.186Z,11.77
2018-09-01T21:48:08.588Z,11.73
2018-09-01T21:50:36.983Z,13.23
2018-09-01T21:53:05.525Z,13.27
2018-09-01T21:55:34.100Z,13.50
2018-09-01T21:58:02.561Z,13.97
2018-09-01T22:00:31.035Z,13.13
2018-09-01T22:03:00.542Z,13.87
2018-09-01T22:05:29.009Z,14.97
2018-09-01T22:07:57.428Z,12.83
2018-09-01T22:10:26.579Z,13.50
2018-09-01T22:12:54.991Z,12.57
2018-09-01T22:15:23.797Z,12.60
2018-09-01T22:17:52.252Z,13.20
2018-09-01T22:20:21.182Z,12.17
2018-09-01T22:22:50.082Z,12.03
2018-09-01T22:25:18.958Z,11.73
2018-09-01T22:27:48.927Z,12.27
2018-09-01T22:30:17.368Z,12.83
2018-09-01T22:32:46.295Z,11.97
2018-09-01T22:35:15.076Z,12.43
2018-09-01T22:37:43.611Z,12.57
2018-09-01T22:40:12.181Z,11.53
2018-09-01T22:42:40.792Z,12.63
2018-09-01T22:45:09.521Z,10.83
2018-09-01T22:47:38.878Z,10.50
2018-09-01T22:50:07.660Z,10.13
2018-09-01T22:52:36.205Z,10.03
2018-09-01T22:55:04.834Z,9.17
2018-09-01T22:57:33.367Z,9.40
2018-09-01T23:00:01.784Z,9.97
2018-09-01T23:02:30.207Z,9.10
2018-09-01T23:05:00.212Z,8.90
2018-09-01T23:07:28.664Z,8.73
2018-09-01T23:09:58.009Z,8.90
2018-09-01T23:12:26.453Z,9.70
2018-09-01T23:14:54.925Z,9.73
2018-09-01T23:17:24.113Z,10.90
2018-09-01T23:19:52.817Z,11.00
2018-09-01T23:22:21.229Z,10.50
2018-09-01T23:24:50.633Z,11.30
2018-09-01T23:27:19.177Z,11.57
2018-09-01T23:29:47.643Z,10.90
2018-09-01T23:32:17.313Z,11.37
2018-09-01T23:34:45.752Z,10.97
2018-09-01T23:37:14.591Z,11.77
2018-09-01T23:39:42.999Z,10.60
2018-09-01T23:42:11.354Z,11.63
2018-09-01T23:44:39.817Z,11.13
2018-09-01T23:47:08.728Z,11.17
2018-09-01T23:49:37.300Z,11.80
2018-09-01T23:52:05.750Z,13.03
2018-09-01T23:54:34.943Z,11.43
2018-09-01T23:57:05.068Z,11.47
2018-09-01T23:59:35.161Z,13.13
